createdAt,value
2018-09-21T00:00:51.451Z,11.33
2018-09-21T00:03:20.905Z,9.37
2018-09-21T00:05:50.447Z,9.00
2018-09-21T00:08:20.029Z,8.07
2018-09-21T00:10:49.476Z,8.97
2018-09-21T00:13:18.919Z,11.23
2018-09-21T00:15:49.380Z,7.63
2018-09-21T00:18:18.824Z,8.93
2018-09-21T00:20:49.381Z,10.17
2018-09-21T00:23:18.759Z,8.80
2018-09-21T00:25:48.167Z,8.80
2018-09-21T00:28:17.697Z,9.43
2018-09-21T00:30:47.228Z,7.57
2018-09-21T00:33:17.464Z,9.00
2018-09-21T00:35:51.008Z,9.03
2018-09-21T00:38:20.696Z,7.63
2018-09-21T00:40:50.186Z,9.10
2018-09-21T00:43:19.660Z,8.50
2018-09-21T00:45:50.083Z,8.00
2018-09-21T00:48:19.623Z,9.47
2018-09-21T00:50:49.151Z,11.77
2018-09-21T00:53:18.615Z,10.53
2018-09-21T00:55:48.316Z,9.60
2018-09-21T00:58:17.890Z,7.93
2018-09-21T01:00:47.364Z,8.40
2018-09-21T01:03:16.852Z,7.97
2018-09-21T01:05:46.362Z,10.47
2018-09-21T01:08:15.923Z,9.07
2018-09-21T01:10:45.495Z,8.67
2018-09-21T01:13:14.911Z,7.67
2018-09-21T01:15:47.084Z,10.67
2018-09-21T01:18:16.520Z,8.10
2018-09-21T01:20:48.004Z,9.87
2018-09-21T01:23:17.410Z,9.57
2018-09-21T01:25:47.832Z,11.37
2018-09-21T01:28:17.295Z,9.03
2018-09-21T01:30:47.771Z,8.20
2018-09-21T01:33:18.091Z,7.90
2018-09-21T01:35:47.536Z,7.63
2018-09-21T01:38:17.031Z,8.70
2018-09-21T01:40:46.568Z,8.43
2018-09-21T01:43:17.096Z,9.23
2018-09-21T01:45:47.542Z,10.30
2018-09-21T01:48:17.003Z,9.77
2018-09-21T01:50:46.714Z,8.33
2018-09-21T01:53:16.244Z,12.43
2018-09-21T01:55:48.771Z,9.70
2018-09-21T01:58:18.393Z,11.23
2018-09-21T02:00:48.001Z,9.93
2018-09-21T02:03:17.402Z,8.47
2018-09-21T02:05:46.854Z,13.27
2018-09-21T02:08:16.318Z,7.63
2018-09-21T02:10:45.940Z,8.77
2018-09-21T02:13:15.447Z,9.80
2018-09-21T02:15:45.027Z,10.70
2018-09-21T02:18:14.663Z,7.60
2018-09-21T02:20:45.247Z,12.13
2018-09-21T02:23:14.850Z,8.37
2018-09-21T02:25:46.269Z,9.47
2018-09-21T02:28:15.817Z,9.30
2018-09-21T02:30:46.071Z,9.67
2018-09-21T02:33:16.551Z,10.93
2018-09-21T02:35:46.102Z,11.50
2018-09-21T02:38:15.602Z,7.40
2018-09-21T02:40:45.092Z,10.10
2018-09-21T02:43:14.606Z,7.93
2018-09-21T02:45:43.994Z,8.00
2018-09-21T02:48:13.507Z,11.50
2018-09-21T02:50:42.910Z,10.00
2018-09-21T02:53:12.291Z,9.70
2018-09-21T02:55:43.366Z,9.87
2018-09-21T02:58:13.770Z,12.67
2018-09-21T03:00:44.419Z,11.00
2018-09-21T03:03:13.713Z,10.03
2018-09-21T03:05:43.104Z,10.13
2018-09-21T03:08:12.841Z,9.17
2018-09-21T03:10:42.476Z,9.53
2018-09-21T03:13:12.048Z,8.30
2018-09-21T03:15:41.428Z,7.67
2018-09-21T03:18:10.978Z,7.73
2018-09-21T03:20:40.336Z,7.60
2018-09-21T03:23:09.817Z,13.40
2018-09-21T03:25:39.272Z,7.70
2018-09-21T03:28:09.765Z,9.00
2018-09-21T03:30:39.360Z,8.73
2018-09-21T03:33:09.807Z,8.90
2018-09-21T03:35:39.238Z,8.10
2018-09-21T03:38:09.731Z,6.80
2018-09-21T03:40:39.340Z,7.37
2018-09-21T03:43:09.794Z,7.53
2018-09-21T03:45:39.608Z,7.23
2018-09-21T03:48:09.215Z,8.60
2018-09-21T03:50:39.054Z,11.93
2018-09-21T03:53:11.039Z,8.97
2018-09-21T03:55:44.473Z,7.60
2018-09-21T03:58:15.461Z,13.90
2018-09-21T04:00:45.019Z,9.30
2018-09-21T04:03:14.559Z,7.43
2018-09-21T04:05:44.244Z,12.73
2018-09-21T04:08:13.715Z,9.13
2018-09-21T04:10:43.280Z,7.83
2018-09-21T04:13:12.727Z,8.23
2018-09-21T04:15:42.355Z,11.60
2018-09-21T04:18:11.945Z,8.00
2018-09-21T04:20:41.428Z,15.37
2018-09-21T04:23:10.842Z,13.87
2018-09-21T04:25:40.254Z,8.97
2018-09-21T04:28:09.776Z,9.07
2018-09-21T04:30:39.185Z,13.97
2018-09-21T04:33:08.719Z,8.00
2018-09-21T04:35:38.147Z,12.47
2018-09-21T04:38:07.609Z,8.33
2018-09-21T04:40:36.977Z,7.47
2018-09-21T04:43:06.435Z,7.80
2018-09-21T04:45:35.935Z,13.30
2018-09-21T04:48:05.320Z,7.60
2018-09-21T04:50:34.720Z,8.87
2018-09-21T04:53:04.198Z,12.93
2018-09-21T04:55:33.621Z,12.63
2018-09-21T04:58:03.108Z,10.80
2018-09-21T05:00:32.609Z,11.23
2018-09-21T05:03:02.005Z,18.57
2018-09-21T05:05:32.439Z,9.97
2018-09-21T05:08:02.805Z,10.47
2018-09-21T05:10:32.188Z,18.60
2018-09-21T05:13:02.552Z,15.40
2018-09-21T05:15:31.951Z,12.17
2018-09-21T05:18:02.421Z,10.97
2018-09-21T05:20:32.327Z,9.97
2018-09-21T05:23:01.803Z,13.67
2018-09-21T05:25:34.295Z,10.10
2018-09-21T05:28:03.784Z,10.37
2018-09-21T05:30:33.206Z,11.30
2018-09-21T05:33:02.602Z,10.33
2018-09-21T05:35:32.003Z,11.23
2018-09-21T05:38:01.419Z,11.87
2018-09-21T05:40:30.925Z,37.83
2018-09-21T05:43:00.322Z,19.47
2018-09-21T05:45:32.756Z,18.10
2018-09-21T05:48:02.152Z,13.57
2018-09-21T05:50:31.643Z,17.67
2018-09-21T05:53:01.006Z,16.83
2018-09-21T05:55:30.460Z,10.83
2018-09-21T05:58:01.011Z,12.17
2018-09-21T06:00:31.512Z,9.77
2018-09-21T06:03:00.946Z,10.57
2018-09-21T06:05:30.286Z,14.10
2018-09-21T06:08:03.863Z,16.70
2018-09-21T06:10:33.241Z,15.70
2018-09-21T06:13:02.656Z,16.90
2018-09-21T06:15:32.116Z,29.77
2018-09-21T06:18:01.597Z,28.87
2018-09-21T06:20:31.110Z,18.50
2018-09-21T06:23:00.796Z,23.23
2018-09-21T06:25:30.695Z,12.40
2018-09-21T06:28:00.082Z,12.23
2018-09-21T06:30:29.546Z,13.43
2018-09-21T06:32:58.975Z,10.80
2018-09-21T06:35:28.413Z,15.23
2018-09-21T06:37:57.769Z,14.77
2018-09-21T06:40:27.216Z,13.53
2018-09-21T06:42:57.556Z,14.60
2018-09-21T06:45:27.984Z,19.13
2018-09-21T06:47:58.525Z,12.97
2018-09-21T06:50:28.990Z,17.03
2018-09-21T06:52:58.437Z,18.13
2018-09-21T06:55:27.887Z,18.20
2018-09-21T06:57:58.295Z,17.30
2018-09-21T07:00:28.682Z,20.47
2018-09-21T07:02:58.147Z,24.50
2018-09-21T07:05:27.602Z,19.13
2018-09-21T07:07:57.076Z,21.30
2018-09-21T07:10:27.428Z,20.50
2018-09-21T07:12:56.941Z,19.77
2018-09-21T07:15:26.329Z,16.93
2018-09-21T07:17:55.707Z,16.37
2018-09-21T07:20:27.503Z,18.00
2018-09-21T07:22:57.665Z,17.97
2018-09-21T07:25:27.172Z,17.57
2018-09-21T07:27:57.544Z,21.90
2018-09-21T07:30:26.997Z,17.77
2018-09-21T07:32:56.518Z,18.17
2018-09-21T07:35:30.757Z,16.73
2018-09-21T07:38:00.265Z,17.07
2018-09-21T07:40:29.735Z,16.47
2018-09-21T07:42:59.151Z,15.97
2018-09-21T07:45:28.532Z,16.43
2018-09-21T07:47:58.642Z,23.20
2018-09-21T07:50:28.154Z,21.43
2018-09-21T07:52:57.468Z,30.13
2018-09-21T07:55:26.881Z,29.77
2018-09-21T07:57:56.331Z,27.37
2018-09-21T08:00:25.781Z,24.30
2018-09-21T08:02:55.304Z,18.37
2018-09-21T08:05:30.997Z,21.00
2018-09-21T08:08:00.983Z,26.10
2018-09-21T08:10:30.621Z,21.20
2018-09-21T08:13:00.641Z,21.87
2018-09-21T08:15:30.587Z,22.23
2018-09-21T08:18:00.121Z,22.17
2018-09-21T08:20:31.573Z,21.37
2018-09-21T08:23:01.015Z,23.87
2018-09-21T08:25:30.429Z,20.70
2018-09-21T08:27:59.860Z,23.50
2018-09-21T08:30:30.376Z,21.83
2018-09-21T08:33:02.921Z,23.20
2018-09-21T08:35:32.325Z,19.70
2018-09-21T08:38:01.792Z,18.73
2018-09-21T08:40:31.352Z,21.30
2018-09-21T08:43:00.755Z,19.70
2018-09-21T08:45:30.147Z,21.03
2018-09-21T08:47:59.590Z,19.83
2018-09-21T08:50:29.137Z,21.47
2018-09-21T08:52:58.527Z,25.87
2018-09-21T08:55:27.942Z,22.90
2018-09-21T08:57:57.417Z,21.90
2018-09-21T09:00:26.884Z,20.30
2018-09-21T09:02:56.563Z,22.43
2018-09-21T09:05:26.896Z,20.57
2018-09-21T09:07:58.346Z,18.60
2018-09-21T09:10:28.931Z,21.97
2018-09-21T09:12:59.302Z,18.73
2018-09-21T09:15:29.617Z,20.70
2018-09-21T09:17:59.133Z,25.20
2018-09-21T09:20:28.489Z,19.67
2018-09-21T09:22:59.910Z,21.13
2018-09-21T09:25:29.245Z,20.17
2018-09-21T09:27:58.632Z,19.90
2018-09-21T09:30:28.031Z,19.10
2018-09-21T09:32:57.593Z,17.80
2018-09-21T09:35:27.219Z,18.97
2018-09-21T09:37:57.687Z,25.13
2018-09-21T09:40:27.121Z,21.23
2018-09-21T09:42:56.525Z,22.27
2018-09-21T09:45:25.988Z,28.43
2018-09-21T09:47:55.400Z,27.33
2018-09-21T09:50:24.834Z,22.50
2018-09-21T09:52:58.195Z,23.40
2018-09-21T09:55:27.717Z,23.70
2018-09-21T09:57:57.079Z,23.20
2018-09-21T10:00:31.682Z,28.33
2018-09-21T10:03:01.046Z,23.47
2018-09-21T10:05:30.464Z,20.90
2018-09-21T10:07:59.894Z,26.07
2018-09-21T10:10:29.432Z,29.27
2018-09-21T10:12:58.744Z,24.83
2018-09-21T10:15:28.123Z,19.77
2018-09-21T10:17:57.607Z,19.17
2018-09-21T10:20:27.065Z,20.33
2018-09-21T10:22:57.502Z,19.33
2018-09-21T10:25:26.920Z,25.67
2018-09-21T10:28:00.392Z,21.90
2018-09-21T10:30:29.732Z,20.63
2018-09-21T10:33:01.195Z,23.53
2018-09-21T10:35:34.789Z,21.70
2018-09-21T10:38:04.125Z,21.63
2018-09-21T10:40:33.553Z,26.30
2018-09-21T10:43:03.012Z,25.67
2018-09-21T10:45:32.349Z,20.90
2018-09-21T10:48:02.888Z,20.70
2018-09-21T10:50:34.308Z,23.10
2018-09-21T10:53:03.696Z,24.20
2018-09-21T10:55:33.116Z,21.00
2018-09-21T10:58:02.595Z,19.50
2018-09-21T11:00:32.082Z,20.97
2018-09-21T11:03:01.446Z,18.83
2018-09-21T11:05:31.867Z,23.43
2018-09-21T11:08:01.528Z,20.40
2018-09-21T11:10:30.978Z,27.23
2018-09-21T11:13:00.458Z,18.53
2018-09-21T11:15:31.867Z,20.23
2018-09-21T11:18:01.318Z,14.30
2018-09-21T11:20:30.654Z,16.80
2018-09-21T11:23:00.738Z,15.90
2018-09-21T11:25:30.145Z,17.63
2018-09-21T11:27:59.566Z,13.10
2018-09-21T11:30:29.038Z,18.37
2018-09-21T11:32:59.633Z,18.30
2018-09-21T11:35:29.012Z,16.90
2018-09-21T11:37:58.402Z,17.90
2018-09-21T11:40:27.769Z,13.00
2018-09-21T11:42:57.168Z,19.43
2018-09-21T11:45:27.547Z,12.27
2018-09-21T11:47:57.021Z,17.27
2018-09-21T11:50:26.398Z,12.17
2018-09-21T11:53:00.581Z,14.63
2018-09-21T11:55:29.956Z,12.03
2018-09-21T11:58:03.291Z,10.83
2018-09-21T12:00:32.711Z,16.47
2018-09-21T12:03:03.123Z,10.93
2018-09-21T12:05:33.541Z,13.27
2018-09-21T12:08:02.932Z,20.73
2018-09-21T12:10:32.326Z,26.80
2018-09-21T12:13:01.796Z,17.07
2018-09-21T12:15:31.184Z,14.03
2018-09-21T12:18:00.570Z,15.00
2018-09-21T12:20:30.109Z,18.70
2018-09-21T12:22:59.536Z,14.57
2018-09-21T12:25:30.085Z,18.30
2018-09-21T12:27:59.540Z,22.93
2018-09-21T12:30:29.077Z,24.23
2018-09-21T12:32:58.544Z,19.80
2018-09-21T12:35:27.867Z,15.60
2018-09-21T12:37:57.317Z,10.77
2018-09-21T12:40:26.741Z,14.80
2018-09-21T12:42:57.127Z,16.37
2018-09-21T12:45:26.461Z,11.73
2018-09-21T12:47:58.296Z,17.30
2018-09-21T12:50:27.851Z,13.63
2018-09-21T12:52:57.241Z,10.80
2018-09-21T12:55:26.652Z,7.83
2018-09-21T12:57:56.075Z,10.67
2018-09-21T13:00:31.775Z,17.23
2018-09-21T13:03:01.308Z,13.27
2018-09-21T13:05:31.862Z,10.60
2018-09-21T13:08:02.268Z,10.50
2018-09-21T13:10:31.634Z,11.57
2018-09-21T13:13:01.128Z,15.27
2018-09-21T13:15:30.525Z,19.90
2018-09-21T13:17:59.999Z,16.13
2018-09-21T13:20:33.407Z,17.00
2018-09-21T13:23:02.909Z,15.90
2018-09-21T13:25:33.495Z,16.93
2018-09-21T13:28:02.929Z,28.07
2018-09-21T13:30:32.312Z,22.63
2018-09-21T13:33:01.792Z,21.13
2018-09-21T13:35:31.301Z,19.20
2018-09-21T13:38:00.932Z,10.77
2018-09-21T13:40:30.340Z,12.50
2018-09-21T13:42:59.822Z,8.97
2018-09-21T13:45:29.184Z,8.10
2018-09-21T13:47:58.544Z,10.53
2018-09-21T13:50:27.913Z,9.13
2018-09-21T13:52:57.249Z,7.13
2018-09-21T13:55:26.661Z,6.67
2018-09-21T13:57:56.109Z,10.93
2018-09-21T14:00:26.512Z,8.23
2018-09-21T14:02:55.998Z,7.37
2018-09-21T14:05:25.440Z,6.33
2018-09-21T14:07:54.813Z,7.87
2018-09-21T14:10:25.182Z,9.20
2018-09-21T14:12:54.572Z,6.47
2018-09-21T14:15:23.908Z,9.67
2018-09-21T14:17:54.285Z,13.23
2018-09-21T14:20:23.634Z,11.03
2018-09-21T14:22:53.058Z,9.50
2018-09-21T14:25:23.175Z,8.17
2018-09-21T14:27:52.606Z,11.03
2018-09-21T14:30:21.988Z,10.90
2018-09-21T14:32:51.614Z,5.87
2018-09-21T14:35:21.299Z,12.40
2018-09-21T14:37:50.657Z,10.23
2018-09-21T14:40:24.097Z,12.43
2018-09-21T14:42:53.473Z,13.53
2018-09-21T14:45:22.912Z,9.27
2018-09-21T14:47:52.426Z,12.07
2018-09-21T14:50:21.982Z,11.43
2018-09-21T14:52:53.458Z,8.00
2018-09-21T14:55:23.014Z,6.17
2018-09-21T14:57:52.536Z,11.67
2018-09-21T15:00:21.992Z,7.03
2018-09-21T15:02:54.501Z,22.77
2018-09-21T15:05:23.979Z,13.10
2018-09-21T15:07:53.408Z,9.83
2018-09-21T15:10:22.884Z,12.67
2018-09-21T15:12:52.509Z,9.00
2018-09-21T15:15:21.995Z,9.13
2018-09-21T15:17:51.903Z,7.73
2018-09-21T15:20:27.373Z,15.33
2018-09-21T15:22:58.833Z,12.17
2018-09-21T15:25:28.698Z,14.27
2018-09-21T15:27:58.091Z,11.50
2018-09-21T15:30:27.544Z,11.27
2018-09-21T15:32:57.028Z,8.43
2018-09-21T15:35:26.476Z,9.97
2018-09-21T15:37:56.069Z,11.80
2018-09-21T15:40:25.675Z,16.23
2018-09-21T15:42:56.108Z,13.40
2018-09-21T15:45:26.497Z,12.87
2018-09-21T15:47:55.904Z,12.00
2018-09-21T15:50:25.336Z,16.20
2018-09-21T15:52:55.788Z,10.47
2018-09-21T15:55:26.222Z,10.23
2018-09-21T15:57:55.708Z,8.90
2018-09-21T16:00:25.196Z,10.40
2018-09-21T16:02:54.841Z,8.80
2018-09-21T16:05:24.218Z,9.33
2018-09-21T16:07:53.665Z,13.80
2018-09-21T16:10:24.055Z,12.83
2018-09-21T16:12:53.468Z,9.70
2018-09-21T16:15:23.012Z,9.90
2018-09-21T16:17:52.472Z,11.67
2018-09-21T16:20:22.579Z,13.17
2018-09-21T16:22:52.083Z,8.30
2018-09-21T16:25:22.457Z,8.50
2018-09-21T16:27:52.908Z,10.03
2018-09-21T16:30:22.436Z,8.20
2018-09-21T16:32:52.610Z,8.33
2018-09-21T16:35:22.015Z,7.90
2018-09-21T16:37:51.624Z,12.73
2018-09-21T16:40:21.096Z,10.00
2018-09-21T16:42:50.606Z,8.17
2018-09-21T16:45:20.063Z,7.10
2018-09-21T16:47:49.577Z,8.27
2018-09-21T16:50:20.031Z,7.90
2018-09-21T16:52:49.633Z,9.30
2018-09-21T16:55:19.199Z,8.13
2018-09-21T16:57:49.734Z,8.13
2018-09-21T17:00:20.240Z,13.20
2018-09-21T17:02:49.806Z,8.80
2018-09-21T17:05:19.239Z,11.87
2018-09-21T17:07:48.663Z,14.40
2018-09-21T17:10:18.221Z,11.00
2018-09-21T17:12:48.484Z,12.03
2018-09-21T17:15:17.943Z,10.77
2018-09-21T17:17:47.412Z,12.57
2018-09-21T17:20:16.905Z,9.20
2018-09-21T17:22:46.244Z,12.40
2018-09-21T17:25:16.781Z,10.30
2018-09-21T17:27:47.325Z,8.23
2018-09-21T17:30:16.829Z,8.80
2018-09-21T17:32:47.290Z,9.53
2018-09-21T17:35:16.714Z,7.80
2018-09-21T17:37:46.173Z,9.67
2018-09-21T17:40:16.590Z,12.03
2018-09-21T17:42:46.062Z,12.30
2018-09-21T17:45:17.492Z,9.60
2018-09-21T17:47:46.941Z,11.70
2018-09-21T17:50:16.454Z,8.87
2018-09-21T17:52:45.939Z,7.73
2018-09-21T17:55:15.395Z,11.83
2018-09-21T17:57:45.475Z,9.43
2018-09-21T18:00:15.964Z,10.47
2018-09-21T18:02:45.332Z,7.87
2018-09-21T18:05:14.785Z,5.60
2018-09-21T18:07:46.255Z,8.20
2018-09-21T18:10:15.647Z,9.60
2018-09-21T18:12:45.693Z,7.57
2018-09-21T18:15:15.172Z,9.27
2018-09-21T18:17:46.581Z,9.33
2018-09-21T18:20:15.996Z,5.97
2018-09-21T18:22:45.423Z,7.13
2018-09-21T18:25:14.832Z,8.10
2018-09-21T18:27:44.179Z,9.13
2018-09-21T18:30:14.719Z,6.70
2018-09-21T18:32:44.287Z,8.63
2018-09-21T18:35:13.728Z,4.83
2018-09-21T18:37:43.176Z,4.80
2018-09-21T18:40:12.665Z,6.43
2018-09-21T18:42:42.144Z,4.23
2018-09-21T18:45:11.590Z,8.70
2018-09-21T18:47:41.077Z,5.40
2018-09-21T18:50:11.537Z,2.60
2018-09-21T18:52:40.928Z,3.83
2018-09-21T18:55:10.487Z,5.53
2018-09-21T18:57:40.962Z,2.87
2018-09-21T19:00:10.639Z,3.37
2018-09-21T19:02:40.056Z,2.67
2018-09-21T19:05:10.431Z,2.37
2018-09-21T19:07:40.133Z,3.03
2018-09-21T19:10:09.619Z,4.20
2018-09-21T19:12:39.309Z,2.43
2018-09-21T19:15:08.871Z,3.43
2018-09-21T19:17:38.547Z,4.50
2018-09-21T19:20:09.456Z,3.63
2018-09-21T19:22:39.178Z,1.40
2018-09-21T19:25:08.994Z,1.30
2018-09-21T19:27:38.745Z,2.13
2018-09-21T19:30:08.475Z,2.33
2018-09-21T19:32:41.357Z,2.50
2018-09-21T19:35:11.092Z,4.10
2018-09-21T19:37:40.902Z,1.20
2018-09-21T19:40:11.563Z,3.57
2018-09-21T19:42:41.111Z,1.80
2018-09-21T19:45:13.051Z,4.10
2018-09-21T19:47:42.512Z,1.50
2018-09-21T19:50:12.854Z,2.63
2018-09-21T19:52:42.311Z,1.43
2018-09-21T19:55:12.705Z,2.57
2018-09-21T19:57:42.287Z,1.17
2018-09-21T20:00:11.846Z,2.27
2018-09-21T20:02:41.230Z,2.60
2018-09-21T20:05:10.699Z,2.33
2018-09-21T20:07:40.198Z,2.00
2018-09-21T20:10:09.640Z,2.20
2018-09-21T20:12:39.896Z,2.87
2018-09-21T20:15:09.369Z,1.50
2018-09-21T20:17:38.977Z,2.00
2018-09-21T20:20:08.379Z,3.63
2018-09-21T20:22:37.843Z,2.83
2018-09-21T20:25:07.354Z,3.03
2018-09-21T20:27:36.703Z,3.07
2018-09-21T20:30:11.688Z,2.57
2018-09-21T20:32:46.429Z,4.47
2018-09-21T20:35:15.948Z,2.23
2018-09-21T20:37:45.413Z,2.03
2018-09-21T20:40:18.690Z,4.20
2018-09-21T20:42:48.188Z,5.23
2018-09-21T20:45:17.608Z,4.50
2018-09-21T20:47:47.015Z,1.50
2018-09-21T20:50:16.454Z,3.73
2018-09-21T20:52:45.822Z,1.67
2018-09-21T20:55:15.269Z,2.03
2018-09-21T20:57:44.632Z,4.27
2018-09-21T21:00:14.090Z,2.80
2018-09-21T21:02:44.300Z,4.23
2018-09-21T21:05:13.807Z,3.60
2018-09-21T21:07:44.146Z,4.53
2018-09-21T21:10:13.579Z,1.77
2018-09-21T21:12:42.967Z,3.23
2018-09-21T21:15:12.539Z,4.17
2018-09-21T21:17:41.918Z,3.03
2018-09-21T21:20:11.256Z,4.77
2018-09-21T21:22:40.650Z,5.00
2018-09-21T21:25:10.112Z,4.43
2018-09-21T21:27:39.460Z,4.07
2018-09-21T21:30:09.977Z,3.87
2018-09-21T21:32:39.441Z,2.37
2018-09-21T21:35:09.365Z,2.33
2018-09-21T21:37:38.837Z,3.73
2018-09-21T21:40:08.328Z,5.33
2018-09-21T21:42:37.680Z,3.87
2018-09-21T21:45:07.134Z,3.70
2018-09-21T21:47:36.554Z,3.50
2018-09-21T21:50:06.130Z,2.57
2018-09-21T21:52:36.519Z,6.10
2018-09-21T21:55:06.007Z,2.57
2018-09-21T21:57:36.362Z,4.93
2018-09-21T22:00:07.295Z,3.13
2018-09-21T22:02:36.699Z,4.40
2018-09-21T22:05:06.213Z,4.70
2018-09-21T22:07:37.001Z,3.20
2018-09-21T22:10:07.836Z,2.43
2018-09-21T22:12:42.414Z,4.70
2018-09-21T22:15:17.637Z,3.97
2018-09-21T22:17:47.783Z,5.37
2018-09-21T22:20:17.447Z,3.37
2018-09-21T22:22:46.801Z,4.20
2018-09-21T22:25:16.279Z,3.47
2018-09-21T22:27:46.676Z,3.97
2018-09-21T22:30:16.153Z,5.77
2018-09-21T22:32:45.561Z,2.60
2018-09-21T22:35:15.090Z,2.87
2018-09-21T22:37:44.467Z,2.07
2018-09-21T22:40:13.867Z,8.20
2018-09-21T22:42:43.334Z,5.73
2018-09-21T22:45:12.897Z,7.17
2018-09-21T22:47:42.244Z,2.90
2018-09-21T22:50:11.610Z,6.63
2018-09-21T22:52:41.062Z,5.37
2018-09-21T22:55:10.530Z,5.67
2018-09-21T22:57:39.991Z,3.97
2018-09-21T23:00:09.305Z,2.63
2018-09-21T23:02:38.805Z,6.20
2018-09-21T23:05:08.353Z,4.73
2018-09-21T23:07:37.856Z,4.37
2018-09-21T23:10:07.274Z,2.27
2018-09-21T23:12:37.281Z,2.60
2018-09-21T23:15:06.724Z,9.37
2018-09-21T23:17:36.139Z,3.23
2018-09-21T23:20:05.614Z,2.73
2018-09-21T23:22:35.113Z,3.70
2018-09-21T23:25:04.512Z,4.87
2018-09-21T23:27:33.878Z,3.30
2018-09-21T23:30:03.317Z,3.87
2018-09-21T23:32:32.742Z,10.77
2018-09-21T23:35:02.151Z,3.30
2018-09-21T23:37:31.521Z,4.30
2018-09-21T23:40:00.981Z,3.40
2018-09-21T23:42:30.690Z,2.67
2018-09-21T23:45:00.130Z,5.20
2018-09-21T23:47:29.503Z,3.90
2018-09-21T23:49:58.832Z,4.20
2018-09-21T23:52:28.368Z,6.10
2018-09-21T23:54:57.750Z,5.47
2018-09-21T23:57:27.870Z,2.83
2018-09-21T23:59:57.395Z,2.77
